sensor_id;sensor_type;location;lat;lon;timestamp;temperature;humidity
69895;DHT22;57172;52.034;5.090;2023-02-18T00:00:28;10.40;83.90
69895;DHT22;57172;52.034;5.090;2023-02-18T00:02:55;10.40;84.00
69895;DHT22;57172;52.034;5.090;2023-02-18T00:05:21;10.40;84.30
69895;DHT22;57172;52.034;5.090;2023-02-18T00:07:48;10.30;84.40
69895;DHT22;57172;52.034;5.090;2023-02-18T00:10:16;10.40;84.50
69895;DHT22;57172;52.034;5.090;2023-02-18T00:12:43;10.30;84.50
69895;DHT22;57172;52.034;5.090;2023-02-18T00:15:10;10.30;84.60
69895;DHT22;57172;52.034;5.090;2023-02-18T00:17:38;10.30;84.70
69895;DHT22;57172;52.034;5.090;2023-02-18T00:20:06;10.20;84.80
69895;DHT22;57172;52.034;5.090;2023-02-18T00:22:33;10.20;84.80
69895;DHT22;57172;52.034;5.090;2023-02-18T00:25:00;10.20;84.90
69895;DHT22;57172;52.034;5.090;2023-02-18T00:27:27;10.20;84.90
69895;DHT22;57172;52.034;5.090;2023-02-18T00:29:54;10.20;85.00
69895;DHT22;57172;52.034;5.090;2023-02-18T00:32:21;10.20;84.90
69895;DHT22;57172;52.034;5.090;2023-02-18T00:34:48;10.10;85.00
69895;DHT22;57172;52.034;5.090;2023-02-18T00:37:15;10.10;85.00
69895;DHT22;57172;52.034;5.090;2023-02-18T00:39:42;10.10;85.00
69895;DHT22;57172;52.034;5.090;2023-02-18T00:42:09;10.00;85.20
69895;DHT22;57172;52.034;5.090;2023-02-18T00:44:36;9.90;85.30
69895;DHT22;57172;52.034;5.090;2023-02-18T00:47:03;9.90;85.40
69895;DHT22;57172;52.034;5.090;2023-02-18T00:49:30;9.80;85.60
69895;DHT22;57172;52.034;5.090;2023-02-18T00:51:57;9.80;85.70
69895;DHT22;57172;52.034;5.090;2023-02-18T00:54:24;9.80;85.70
69895;DHT22;57172;52.034;5.090;2023-02-18T00:56:51;9.80;85.70
69895;DHT22;57172;52.034;5.090;2023-02-18T00:59:18;9.70;85.90
69895;DHT22;57172;52.034;5.090;2023-02-18T01:01:44;9.70;85.90
69895;DHT22;57172;52.034;5.090;2023-02-18T01:04:11;9.70;86.00
69895;DHT22;57172;52.034;5.090;2023-02-18T01:06:38;9.60;86.00
69895;DHT22;57172;52.034;5.090;2023-02-18T01:09:05;9.60;86.10
69895;DHT22;57172;52.034;5.090;2023-02-18T01:11:32;9.60;86.30
69895;DHT22;57172;52.034;5.090;2023-02-18T01:13:59;9.60;86.40
69895;DHT22;57172;52.034;5.090;2023-02-18T01:16:28;9.70;86.40
69895;DHT22;57172;52.034;5.090;2023-02-18T01:18:55;9.70;86.20
69895;DHT22;57172;52.034;5.090;2023-02-18T01:21:24;9.70;86.20
69895;DHT22;57172;52.034;5.090;2023-02-18T01:23:51;9.70;86.30
69895;DHT22;57172;52.034;5.090;2023-02-18T01:26:18;9.70;86.20
69895;DHT22;57172;52.034;5.090;2023-02-18T01:28:45;9.70;86.30
69895;DHT22;57172;52.034;5.090;2023-02-18T01:31:13;9.70;86.30
69895;DHT22;57172;52.034;5.090;2023-02-18T01:33:41;9.70;86.40
69895;DHT22;57172;52.034;5.090;2023-02-18T01:36:09;9.80;86.40
69895;DHT22;57172;52.034;5.090;2023-02-18T01:38:37;9.80;86.40
69895;DHT22;57172;52.034;5.090;2023-02-18T01:41:04;9.80;86.40
69895;DHT22;57172;52.034;5.090;2023-02-18T01:43:32;9.80;86.40
69895;DHT22;57172;52.034;5.090;2023-02-18T01:46:14;9.80;86.40
69895;DHT22;57172;52.034;5.090;2023-02-18T01:51:27;9.90;86.50
69895;DHT22;57172;52.034;5.090;2023-02-18T01:53:55;9.90;86.40
69895;DHT22;57172;52.034;5.090;2023-02-18T01:56:30;10.00;86.40
69895;DHT22;57172;52.034;5.090;2023-02-18T01:59:00;9.90;86.40
69895;DHT22;57172;52.034;5.090;2023-02-18T02:01:29;10.00;86.50
69895;DHT22;57172;52.034;5.090;2023-02-18T02:03:56;9.90;86.50
69895;DHT22;57172;52.034;5.090;2023-02-18T02:06:24;10.00;86.60
69895;DHT22;57172;52.034;5.090;2023-02-18T02:08:55;9.90;86.70
69895;DHT22;57172;52.034;5.090;2023-02-18T02:27:37;10.10;87.20
69895;DHT22;57172;52.034;5.090;2023-02-18T02:35:27;10.10;87.40
69895;DHT22;57172;52.034;5.090;2023-02-18T02:38:02;10.10;87.40
69895;DHT22;57172;52.034;5.090;2023-02-18T02:40:43;10.10;87.40
69895;DHT22;57172;52.034;5.090;2023-02-18T02:43:45;10.10;87.40
69895;DHT22;57172;52.034;5.090;2023-02-18T02:46:39;10.20;87.40
69895;DHT22;57172;52.034;5.090;2023-02-18T02:54:20;10.20;87.50
69895;DHT22;57172;52.034;5.090;2023-02-18T02:56:48;10.20;87.60
69895;DHT22;57172;52.034;5.090;2023-02-18T02:59:23;10.20;87.60
69895;DHT22;57172;52.034;5.090;2023-02-18T03:05:06;10.20;87.60
69895;DHT22;57172;52.034;5.090;2023-02-18T03:16:14;10.20;87.60
69895;DHT22;57172;52.034;5.090;2023-02-18T03:18:47;10.20;87.70
69895;DHT22;57172;52.034;5.090;2023-02-18T03:24:00;10.20;87.70
69895;DHT22;57172;52.034;5.090;2023-02-18T03:26:30;10.20;87.60
69895;DHT22;57172;52.034;5.090;2023-02-18T03:29:01;10.20;87.50
69895;DHT22;57172;52.034;5.090;2023-02-18T03:31:29;10.30;87.40
69895;DHT22;57172;52.034;5.090;2023-02-18T03:34:14;10.30;87.50
69895;DHT22;57172;52.034;5.090;2023-02-18T03:36:42;10.30;87.40
69895;DHT22;57172;52.034;5.090;2023-02-18T03:39:17;10.30;87.50
69895;DHT22;57172;52.034;5.090;2023-02-18T03:41:45;10.30;87.50
69895;DHT22;57172;52.034;5.090;2023-02-18T03:44:13;10.40;87.60
69895;DHT22;57172;52.034;5.090;2023-02-18T03:46:42;10.30;87.70
69895;DHT22;57172;52.034;5.090;2023-02-18T03:49:11;10.30;87.80
69895;DHT22;57172;52.034;5.090;2023-02-18T03:51:40;10.40;87.80
69895;DHT22;57172;52.034;5.090;2023-02-18T03:54:08;10.30;87.90
69895;DHT22;57172;52.034;5.090;2023-02-18T03:56:35;10.40;88.00
69895;DHT22;57172;52.034;5.090;2023-02-18T03:59:03;10.40;88.10
69895;DHT22;57172;52.034;5.090;2023-02-18T04:01:30;10.40;88.30
69895;DHT22;57172;52.034;5.090;2023-02-18T04:03:57;10.40;88.40
69895;DHT22;57172;52.034;5.090;2023-02-18T04:06:24;10.40;88.40
69895;DHT22;57172;52.034;5.090;2023-02-18T04:08:51;10.40;88.50
69895;DHT22;57172;52.034;5.090;2023-02-18T04:11:17;10.40;88.50
69895;DHT22;57172;52.034;5.090;2023-02-18T04:13:44;10.40;88.60
69895;DHT22;57172;52.034;5.090;2023-02-18T04:16:11;10.40;88.60
69895;DHT22;57172;52.034;5.090;2023-02-18T04:18:39;10.40;88.50
69895;DHT22;57172;52.034;5.090;2023-02-18T04:21:05;10.40;88.60
69895;DHT22;57172;52.034;5.090;2023-02-18T04:23:32;10.40;88.50
69895;DHT22;57172;52.034;5.090;2023-02-18T04:25:59;10.40;88.50
69895;DHT22;57172;52.034;5.090;2023-02-18T04:28:26;10.40;88.50
69895;DHT22;57172;52.034;5.090;2023-02-18T04:30:53;10.40;88.50
69895;DHT22;57172;52.034;5.090;2023-02-18T04:33:20;10.40;88.50
69895;DHT22;57172;52.034;5.090;2023-02-18T04:35:47;10.40;88.60
69895;DHT22;57172;52.034;5.090;2023-02-18T04:38:14;10.40;88.50
69895;DHT22;57172;52.034;5.090;2023-02-18T04:40:41;10.30;88.60
69895;DHT22;57172;52.034;5.090;2023-02-18T04:43:08;10.30;88.60
69895;DHT22;57172;52.034;5.090;2023-02-18T04:45:35;10.30;88.50
69895;DHT22;57172;52.034;5.090;2023-02-18T04:48:02;10.30;88.50
69895;DHT22;57172;52.034;5.090;2023-02-18T04:50:29;10.30;88.50
69895;DHT22;57172;52.034;5.090;2023-02-18T04:52:56;10.30;88.50
69895;DHT22;57172;52.034;5.090;2023-02-18T04:55:22;10.30;88.50
69895;DHT22;57172;52.034;5.090;2023-02-18T04:57:49;10.30;88.50
69895;DHT22;57172;52.034;5.090;2023-02-18T05:00:18;10.20;88.70
69895;DHT22;57172;52.034;5.090;2023-02-18T05:02:45;10.20;88.80
69895;DHT22;57172;52.034;5.090;2023-02-18T05:05:13;10.20;88.80
69895;DHT22;57172;52.034;5.090;2023-02-18T05:07:40;10.20;88.90
69895;DHT22;57172;52.034;5.090;2023-02-18T05:10:09;10.20;89.00
69895;DHT22;57172;52.034;5.090;2023-02-18T05:12:37;10.20;89.00
69895;DHT22;57172;52.034;5.090;2023-02-18T05:15:04;10.20;89.10
69895;DHT22;57172;52.034;5.090;2023-02-18T05:17:31;10.20;89.10
69895;DHT22;57172;52.034;5.090;2023-02-18T05:19:58;10.20;89.10
69895;DHT22;57172;52.034;5.090;2023-02-18T05:22:25;10.20;89.20
69895;DHT22;57172;52.034;5.090;2023-02-18T05:24:52;10.20;89.20
69895;DHT22;57172;52.034;5.090;2023-02-18T05:27:19;10.20;89.20
69895;DHT22;57172;52.034;5.090;2023-02-18T05:29:45;10.20;89.20
69895;DHT22;57172;52.034;5.090;2023-02-18T05:32:12;10.20;89.10
69895;DHT22;57172;52.034;5.090;2023-02-18T05:34:39;10.30;89.10
69895;DHT22;57172;52.034;5.090;2023-02-18T05:37:06;10.30;89.00
69895;DHT22;57172;52.034;5.090;2023-02-18T05:39:33;10.30;88.90
69895;DHT22;57172;52.034;5.090;2023-02-18T05:42:00;10.30;88.90
69895;DHT22;57172;52.034;5.090;2023-02-18T05:44:27;10.30;88.80
69895;DHT22;57172;52.034;5.090;2023-02-18T05:47:06;10.30;88.90
69895;DHT22;57172;52.034;5.090;2023-02-18T05:49:37;10.30;88.80
69895;DHT22;57172;52.034;5.090;2023-02-18T05:52:05;10.30;88.80
69895;DHT22;57172;52.034;5.090;2023-02-18T05:54:32;10.30;88.90
69895;DHT22;57172;52.034;5.090;2023-02-18T05:56:59;10.30;88.90
69895;DHT22;57172;52.034;5.090;2023-02-18T05:59:27;10.30;89.00
69895;DHT22;57172;52.034;5.090;2023-02-18T06:01:54;10.30;89.00
69895;DHT22;57172;52.034;5.090;2023-02-18T06:04:21;10.30;89.10
69895;DHT22;57172;52.034;5.090;2023-02-18T06:06:48;10.40;89.00
69895;DHT22;57172;52.034;5.090;2023-02-18T06:09:15;10.40;88.90
69895;DHT22;57172;52.034;5.090;2023-02-18T06:11:42;10.40;88.90
69895;DHT22;57172;52.034;5.090;2023-02-18T06:14:09;10.40;88.80
69895;DHT22;57172;52.034;5.090;2023-02-18T06:16:35;10.40;88.80
69895;DHT22;57172;52.034;5.090;2023-02-18T06:19:02;10.40;88.60
69895;DHT22;57172;52.034;5.090;2023-02-18T06:21:29;10.40;88.70
69895;DHT22;57172;52.034;5.090;2023-02-18T06:23:56;10.40;88.70
69895;DHT22;57172;52.034;5.090;2023-02-18T06:26:23;10.40;88.70
69895;DHT22;57172;52.034;5.090;2023-02-18T06:28:50;10.40;88.80
69895;DHT22;57172;52.034;5.090;2023-02-18T06:31:17;10.40;88.80
69895;DHT22;57172;52.034;5.090;2023-02-18T06:33:44;10.30;88.80
69895;DHT22;57172;52.034;5.090;2023-02-18T06:36:11;10.30;88.90
69895;DHT22;57172;52.034;5.090;2023-02-18T06:38:41;10.30;88.90
69895;DHT22;57172;52.034;5.090;2023-02-18T06:41:09;10.30;88.80
69895;DHT22;57172;52.034;5.090;2023-02-18T06:43:36;10.30;88.80
69895;DHT22;57172;52.034;5.090;2023-02-18T06:46:04;10.30;88.70
69895;DHT22;57172;52.034;5.090;2023-02-18T06:48:31;10.30;88.70
69895;DHT22;57172;52.034;5.090;2023-02-18T06:50:58;10.30;88.70
69895;DHT22;57172;52.034;5.090;2023-02-18T06:53:25;10.30;88.80
69895;DHT22;57172;52.034;5.090;2023-02-18T06:55:52;10.30;88.70
69895;DHT22;57172;52.034;5.090;2023-02-18T06:58:19;10.30;88.60
69895;DHT22;57172;52.034;5.090;2023-02-18T07:00:46;10.30;88.60
69895;DHT22;57172;52.034;5.090;2023-02-18T07:03:13;10.30;88.30
69895;DHT22;57172;52.034;5.090;2023-02-18T07:05:41;10.40;88.10
69895;DHT22;57172;52.034;5.090;2023-02-18T07:08:08;10.40;88.10
69895;DHT22;57172;52.034;5.090;2023-02-18T07:10:35;10.40;88.10
69895;DHT22;57172;52.034;5.090;2023-02-18T07:13:02;10.40;88.00
69895;DHT22;57172;52.034;5.090;2023-02-18T07:15:29;10.40;87.90
69895;DHT22;57172;52.034;5.090;2023-02-18T07:17:56;10.30;87.90
69895;DHT22;57172;52.034;5.090;2023-02-18T07:20:24;10.30;87.90
69895;DHT22;57172;52.034;5.090;2023-02-18T07:22:51;10.30;87.80
69895;DHT22;57172;52.034;5.090;2023-02-18T07:25:18;10.30;87.70
69895;DHT22;57172;52.034;5.090;2023-02-18T07:27:48;10.30;87.70
69895;DHT22;57172;52.034;5.090;2023-02-18T07:30:16;10.30;87.40
69895;DHT22;57172;52.034;5.090;2023-02-18T07:32:42;10.30;87.20
69895;DHT22;57172;52.034;5.090;2023-02-18T07:35:12;10.30;87.10
69895;DHT22;57172;52.034;5.090;2023-02-18T07:37:43;10.40;86.70
69895;DHT22;57172;52.034;5.090;2023-02-18T07:40:13;10.40;86.40
69895;DHT22;57172;52.034;5.090;2023-02-18T07:42:40;10.40;86.40
69895;DHT22;57172;52.034;5.090;2023-02-18T07:45:07;10.40;86.20
69895;DHT22;57172;52.034;5.090;2023-02-18T07:47:34;10.40;86.20
69895;DHT22;57172;52.034;5.090;2023-02-18T07:50:01;10.40;85.70
69895;DHT22;57172;52.034;5.090;2023-02-18T07:52:28;10.40;85.30
69895;DHT22;57172;52.034;5.090;2023-02-18T07:54:55;10.40;85.40
69895;DHT22;57172;52.034;5.090;2023-02-18T07:57:22;10.40;84.80
69895;DHT22;57172;52.034;5.090;2023-02-18T07:59:48;10.40;84.50
69895;DHT22;57172;52.034;5.090;2023-02-18T08:02:21;10.50;84.70
69895;DHT22;57172;52.034;5.090;2023-02-18T08:04:48;10.50;84.40
69895;DHT22;57172;52.034;5.090;2023-02-18T08:07:16;10.40;83.50
69895;DHT22;57172;52.034;5.090;2023-02-18T08:09:44;10.40;83.60
69895;DHT22;57172;52.034;5.090;2023-02-18T08:12:10;10.40;83.10
69895;DHT22;57172;52.034;5.090;2023-02-18T08:14:37;10.30;83.40
69895;DHT22;57172;52.034;5.090;2023-02-18T08:17:04;10.20;83.40
69895;DHT22;57172;52.034;5.090;2023-02-18T08:19:31;10.10;83.80
69895;DHT22;57172;52.034;5.090;2023-02-18T08:22:01;10.00;84.00
69895;DHT22;57172;52.034;5.090;2023-02-18T08:24:28;10.00;84.00
69895;DHT22;57172;52.034;5.090;2023-02-18T08:26:55;10.00;84.10
69895;DHT22;57172;52.034;5.090;2023-02-18T08:29:28;9.90;84.10
69895;DHT22;57172;52.034;5.090;2023-02-18T08:31:54;10.00;84.20
69895;DHT22;57172;52.034;5.090;2023-02-18T08:34:23;10.00;84.20
69895;DHT22;57172;52.034;5.090;2023-02-18T08:36:50;10.00;83.90
69895;DHT22;57172;52.034;5.090;2023-02-18T08:39:17;10.00;83.70
69895;DHT22;57172;52.034;5.090;2023-02-18T08:41:44;10.00;83.60
69895;DHT22;57172;52.034;5.090;2023-02-18T08:44:11;10.00;84.00
69895;DHT22;57172;52.034;5.090;2023-02-18T08:46:38;9.90;84.00
69895;DHT22;57172;52.034;5.090;2023-02-18T08:49:05;9.90;84.10
69895;DHT22;57172;52.034;5.090;2023-02-18T08:51:32;9.80;84.10
69895;DHT22;57172;52.034;5.090;2023-02-18T08:53:59;9.80;84.00
69895;DHT22;57172;52.034;5.090;2023-02-18T08:56:26;9.90;84.20
69895;DHT22;57172;52.034;5.090;2023-02-18T08:58:53;9.90;84.40
69895;DHT22;57172;52.034;5.090;2023-02-18T09:01:20;9.90;84.70
69895;DHT22;57172;52.034;5.090;2023-02-18T09:03:46;9.90;84.50
69895;DHT22;57172;52.034;5.090;2023-02-18T09:06:14;10.00;84.40
69895;DHT22;57172;52.034;5.090;2023-02-18T09:08:41;10.10;84.50
69895;DHT22;57172;52.034;5.090;2023-02-18T09:11:09;10.10;84.00
69895;DHT22;57172;52.034;5.090;2023-02-18T09:13:37;10.10;83.50
69895;DHT22;57172;52.034;5.090;2023-02-18T09:16:13;10.20;83.10
69895;DHT22;57172;52.034;5.090;2023-02-18T09:18:41;10.20;82.80
69895;DHT22;57172;52.034;5.090;2023-02-18T09:21:10;10.30;82.00
69895;DHT22;57172;52.034;5.090;2023-02-18T09:23:37;10.40;82.50
69895;DHT22;57172;52.034;5.090;2023-02-18T09:26:07;10.40;82.10
69895;DHT22;57172;52.034;5.090;2023-02-18T09:28:34;10.40;81.80
69895;DHT22;57172;52.034;5.090;2023-02-18T09:31:12;10.40;81.90
69895;DHT22;57172;52.034;5.090;2023-02-18T09:33:42;10.40;81.60
69895;DHT22;57172;52.034;5.090;2023-02-18T09:36:12;10.40;81.70
69895;DHT22;57172;52.034;5.090;2023-02-18T09:38:38;10.50;81.40
69895;DHT22;57172;52.034;5.090;2023-02-18T09:41:09;10.50;81.30
69895;DHT22;57172;52.034;5.090;2023-02-18T09:43:45;10.50;81.20
69895;DHT22;57172;52.034;5.090;2023-02-18T09:48:51;10.60;81.30
69895;DHT22;57172;52.034;5.090;2023-02-18T09:51:18;10.60;81.00
69895;DHT22;57172;52.034;5.090;2023-02-18T09:53:46;10.60;80.70
69895;DHT22;57172;52.034;5.090;2023-02-18T09:56:17;10.70;80.80
69895;DHT22;57172;52.034;5.090;2023-02-18T09:58:46;10.70;80.90
69895;DHT22;57172;52.034;5.090;2023-02-18T10:01:33;10.80;80.90
69895;DHT22;57172;52.034;5.090;2023-02-18T10:04:21;10.80;80.90
69895;DHT22;57172;52.034;5.090;2023-02-18T10:06:52;10.90;80.40
69895;DHT22;57172;52.034;5.090;2023-02-18T10:11:51;11.00;80.60
69895;DHT22;57172;52.034;5.090;2023-02-18T10:14:20;11.00;80.30
69895;DHT22;57172;52.034;5.090;2023-02-18T10:16:49;11.10;80.60
69895;DHT22;57172;52.034;5.090;2023-02-18T10:19:31;11.20;79.70
69895;DHT22;57172;52.034;5.090;2023-02-18T10:22:01;11.20;79.80
69895;DHT22;57172;52.034;5.090;2023-02-18T10:24:30;11.20;79.90
69895;DHT22;57172;52.034;5.090;2023-02-18T10:26:58;11.20;79.70
69895;DHT22;57172;52.034;5.090;2023-02-18T10:29:26;11.20;79.30
69895;DHT22;57172;52.034;5.090;2023-02-18T10:34:50;11.20;79.60
69895;DHT22;57172;52.034;5.090;2023-02-18T10:46:36;11.30;79.70
69895;DHT22;57172;52.034;5.090;2023-02-18T10:51:49;11.30;79.10
69895;DHT22;57172;52.034;5.090;2023-02-18T10:54:17;11.40;79.30
69895;DHT22;57172;52.034;5.090;2023-02-18T10:56:48;11.40;79.10
69895;DHT22;57172;52.034;5.090;2023-02-18T10:59:21;11.50;79.20
69895;DHT22;57172;52.034;5.090;2023-02-18T11:02:17;11.60;80.00
69895;DHT22;57172;52.034;5.090;2023-02-18T11:04:45;11.70;79.30
69895;DHT22;57172;52.034;5.090;2023-02-18T11:07:21;11.80;78.70
69895;DHT22;57172;52.034;5.090;2023-02-18T11:09:52;11.80;78.20
69895;DHT22;57172;52.034;5.090;2023-02-18T11:12:23;11.90;78.40
69895;DHT22;57172;52.034;5.090;2023-02-18T11:17:43;12.10;78.70
69895;DHT22;57172;52.034;5.090;2023-02-18T11:20:31;12.20;78.30
69895;DHT22;57172;52.034;5.090;2023-02-18T11:25:37;12.30;77.30
69895;DHT22;57172;52.034;5.090;2023-02-18T11:30:46;12.20;76.80
69895;DHT22;57172;52.034;5.090;2023-02-18T11:33:20;12.20;76.70
69895;DHT22;57172;52.034;5.090;2023-02-18T11:35:55;12.10;76.50
69895;DHT22;57172;52.034;5.090;2023-02-18T11:38:47;12.10;76.80
69895;DHT22;57172;52.034;5.090;2023-02-18T11:41:17;12.10;77.30
69895;DHT22;57172;52.034;5.090;2023-02-18T11:43:48;12.00;77.30
69895;DHT22;57172;52.034;5.090;2023-02-18T11:46:21;12.00;77.70
69895;DHT22;57172;52.034;5.090;2023-02-18T11:48:49;12.10;77.80
69895;DHT22;57172;52.034;5.090;2023-02-18T11:51:35;12.10;77.70
69895;DHT22;57172;52.034;5.090;2023-02-18T11:54:23;12.10;77.30
69895;DHT22;57172;52.034;5.090;2023-02-18T11:57:03;12.10;77.30
69895;DHT22;57172;52.034;5.090;2023-02-18T11:59:34;12.10;77.20
69895;DHT22;57172;52.034;5.090;2023-02-18T12:02:21;12.10;77.90
69895;DHT22;57172;52.034;5.090;2023-02-18T12:04:57;12.10;77.10
69895;DHT22;57172;52.034;5.090;2023-02-18T12:07:29;12.20;77.40
69895;DHT22;57172;52.034;5.090;2023-02-18T12:10:03;12.30;78.30
69895;DHT22;57172;52.034;5.090;2023-02-18T12:12:45;12.40;77.50
69895;DHT22;57172;52.034;5.090;2023-02-18T12:15:17;12.50;76.90
69895;DHT22;57172;52.034;5.090;2023-02-18T12:18:30;12.50;76.40
69895;DHT22;57172;52.034;5.090;2023-02-18T12:20:41;12.60;75.90
69895;DHT22;57172;52.034;5.090;2023-02-18T12:23:24;12.50;76.60
69895;DHT22;57172;52.034;5.090;2023-02-18T12:26:29;12.50;75.90
69895;DHT22;57172;52.034;5.090;2023-02-18T12:32:02;12.60;76.40
69895;DHT22;57172;52.034;5.090;2023-02-18T12:35:06;12.70;77.30
69895;DHT22;57172;52.034;5.090;2023-02-18T12:59:05;13.10;74.80
69895;DHT22;57172;52.034;5.090;2023-02-18T13:04:31;13.30;75.00
69895;DHT22;57172;52.034;5.090;2023-02-18T13:07:29;13.40;73.80
69895;DHT22;57172;52.034;5.090;2023-02-18T13:15:22;13.60;72.50
69895;DHT22;57172;52.034;5.090;2023-02-18T13:17:55;13.40;73.10
69895;DHT22;57172;52.034;5.090;2023-02-18T13:20:38;13.40;73.50
69895;DHT22;57172;52.034;5.090;2023-02-18T13:23:15;13.30;73.90
69895;DHT22;57172;52.034;5.090;2023-02-18T13:25:43;13.30;74.00
69895;DHT22;57172;52.034;5.090;2023-02-18T13:31:21;13.40;75.10
69895;DHT22;57172;52.034;5.090;2023-02-18T13:34:31;13.40;73.70
69895;DHT22;57172;52.034;5.090;2023-02-18T13:39:36;13.60;75.30
69895;DHT22;57172;52.034;5.090;2023-02-18T13:47:39;13.80;74.00
69895;DHT22;57172;52.034;5.090;2023-02-18T13:50:20;13.90;73.50
69895;DHT22;57172;52.034;5.090;2023-02-18T13:53:12;13.90;72.50
69895;DHT22;57172;52.034;5.090;2023-02-18T13:56:01;13.80;73.20
69895;DHT22;57172;52.034;5.090;2023-02-18T13:58:50;13.90;72.80
69895;DHT22;57172;52.034;5.090;2023-02-18T14:01:37;13.80;72.30
69895;DHT22;57172;52.034;5.090;2023-02-18T14:12:39;13.90;73.60
69895;DHT22;57172;52.034;5.090;2023-02-18T14:25:50;14.20;71.30
69895;DHT22;57172;52.034;5.090;2023-02-18T14:36:41;14.20;70.50
69895;DHT22;57172;52.034;5.090;2023-02-18T14:45:02;14.20;72.10
69895;DHT22;57172;52.034;5.090;2023-02-18T14:50:17;14.10;70.90
69895;DHT22;57172;52.034;5.090;2023-02-18T14:55:19;13.90;71.80
69895;DHT22;57172;52.034;5.090;2023-02-18T14:58:28;13.80;72.10
69895;DHT22;57172;52.034;5.090;2023-02-18T15:00:56;13.70;72.30
69895;DHT22;57172;52.034;5.090;2023-02-18T15:03:26;13.60;72.30
69895;DHT22;57172;52.034;5.090;2023-02-18T15:05:54;13.60;72.70
69895;DHT22;57172;52.034;5.090;2023-02-18T15:08:23;13.50;72.40
69895;DHT22;57172;52.034;5.090;2023-02-18T15:10:57;13.50;73.00
69895;DHT22;57172;52.034;5.090;2023-02-18T15:13:44;13.50;72.70
69895;DHT22;57172;52.034;5.090;2023-02-18T15:16:15;13.50;72.30
69895;DHT22;57172;52.034;5.090;2023-02-18T15:18:50;13.40;72.70
69895;DHT22;57172;52.034;5.090;2023-02-18T15:21:34;13.40;72.80
69895;DHT22;57172;52.034;5.090;2023-02-18T15:24:31;13.30;72.60
69895;DHT22;57172;52.034;5.090;2023-02-18T15:27:02;13.20;73.20
69895;DHT22;57172;52.034;5.090;2023-02-18T15:29:34;13.10;73.50
69895;DHT22;57172;52.034;5.090;2023-02-18T15:32:14;13.10;73.20
69895;DHT22;57172;52.034;5.090;2023-02-18T15:34:44;13.00;73.60
69895;DHT22;57172;52.034;5.090;2023-02-18T15:37:13;13.00;73.60
69895;DHT22;57172;52.034;5.090;2023-02-18T15:39:41;12.90;73.60
69895;DHT22;57172;52.034;5.090;2023-02-18T15:42:33;12.80;73.80
69895;DHT22;57172;52.034;5.090;2023-02-18T15:45:02;12.80;74.50
69895;DHT22;57172;52.034;5.090;2023-02-18T15:47:31;12.70;74.40
69895;DHT22;57172;52.034;5.090;2023-02-18T15:50:00;12.70;74.90
69895;DHT22;57172;52.034;5.090;2023-02-18T15:52:31;12.70;74.70
69895;DHT22;57172;52.034;5.090;2023-02-18T15:55:32;12.60;74.80
69895;DHT22;57172;52.034;5.090;2023-02-18T15:58:02;12.60;75.10
69895;DHT22;57172;52.034;5.090;2023-02-18T16:00:40;12.60;75.40
69895;DHT22;57172;52.034;5.090;2023-02-18T16:05:38;12.60;75.60
69895;DHT22;57172;52.034;5.090;2023-02-18T16:08:25;12.60;75.50
69895;DHT22;57172;52.034;5.090;2023-02-18T16:11:00;12.50;75.60
69895;DHT22;57172;52.034;5.090;2023-02-18T16:13:29;12.50;75.70
69895;DHT22;57172;52.034;5.090;2023-02-18T16:15:57;12.50;76.10
69895;DHT22;57172;52.034;5.090;2023-02-18T16:20:59;12.50;76.30
69895;DHT22;57172;52.034;5.090;2023-02-18T16:23:39;12.50;76.20
69895;DHT22;57172;52.034;5.090;2023-02-18T16:26:20;12.40;76.00
69895;DHT22;57172;52.034;5.090;2023-02-18T16:28:50;12.40;76.20
69895;DHT22;57172;52.034;5.090;2023-02-18T16:31:17;12.40;76.40
69895;DHT22;57172;52.034;5.090;2023-02-18T16:33:48;12.40;76.70
69895;DHT22;57172;52.034;5.090;2023-02-18T16:36:16;12.30;76.60
69895;DHT22;57172;52.034;5.090;2023-02-18T16:38:44;12.30;76.50
69895;DHT22;57172;52.034;5.090;2023-02-18T16:41:12;12.30;76.80
69895;DHT22;57172;52.034;5.090;2023-02-18T16:43:41;12.30;76.60
69895;DHT22;57172;52.034;5.090;2023-02-18T16:46:18;12.20;76.90
69895;DHT22;57172;52.034;5.090;2023-02-18T16:48:49;12.20;76.80
69895;DHT22;57172;52.034;5.090;2023-02-18T16:51:46;12.20;77.20
69895;DHT22;57172;52.034;5.090;2023-02-18T16:54:14;12.20;77.20
69895;DHT22;57172;52.034;5.090;2023-02-18T16:56:42;12.10;77.30
69895;DHT22;57172;52.034;5.090;2023-02-18T16:59:10;12.10;77.40
69895;DHT22;57172;52.034;5.090;2023-02-18T17:01:41;12.10;77.40
69895;DHT22;57172;52.034;5.090;2023-02-18T17:04:15;12.00;77.70
69895;DHT22;57172;52.034;5.090;2023-02-18T17:06:43;12.00;77.90
69895;DHT22;57172;52.034;5.090;2023-02-18T17:09:19;12.00;77.70
69895;DHT22;57172;52.034;5.090;2023-02-18T17:11:53;12.00;77.60
69895;DHT22;57172;52.034;5.090;2023-02-18T17:14:22;11.90;77.70
69895;DHT22;57172;52.034;5.090;2023-02-18T17:16:51;11.90;78.20
69895;DHT22;57172;52.034;5.090;2023-02-18T17:19:18;11.90;78.30
69895;DHT22;57172;52.034;5.090;2023-02-18T17:21:46;11.90;78.20
69895;DHT22;57172;52.034;5.090;2023-02-18T17:24:17;11.90;78.20
69895;DHT22;57172;52.034;5.090;2023-02-18T17:26:44;11.90;78.20
69895;DHT22;57172;52.034;5.090;2023-02-18T17:29:11;11.80;78.20
69895;DHT22;57172;52.034;5.090;2023-02-18T17:31:40;11.80;78.50
69895;DHT22;57172;52.034;5.090;2023-02-18T17:34:14;11.70;78.60
69895;DHT22;57172;52.034;5.090;2023-02-18T17:36:44;11.70;78.60
69895;DHT22;57172;52.034;5.090;2023-02-18T17:39:12;11.70;78.80
69895;DHT22;57172;52.034;5.090;2023-02-18T17:41:40;11.60;79.00
69895;DHT22;57172;52.034;5.090;2023-02-18T17:44:21;11.50;79.20
69895;DHT22;57172;52.034;5.090;2023-02-18T17:46:49;11.50;79.40
69895;DHT22;57172;52.034;5.090;2023-02-18T17:49:16;11.40;79.60
69895;DHT22;57172;52.034;5.090;2023-02-18T17:51:43;11.40;79.80
69895;DHT22;57172;52.034;5.090;2023-02-18T17:54:15;11.40;79.90
69895;DHT22;57172;52.034;5.090;2023-02-18T17:56:43;11.40;80.00
69895;DHT22;57172;52.034;5.090;2023-02-18T17:59:10;11.40;80.30
69895;DHT22;57172;52.034;5.090;2023-02-18T18:01:38;11.40;80.50
69895;DHT22;57172;52.034;5.090;2023-02-18T18:04:13;11.40;80.60
69895;DHT22;57172;52.034;5.090;2023-02-18T18:06:41;11.40;80.50
69895;DHT22;57172;52.034;5.090;2023-02-18T18:09:08;11.40;80.70
69895;DHT22;57172;52.034;5.090;2023-02-18T18:11:36;11.40;80.80
69895;DHT22;57172;52.034;5.090;2023-02-18T18:14:03;11.40;80.80
69895;DHT22;57172;52.034;5.090;2023-02-18T18:16:30;11.40;80.80
69895;DHT22;57172;52.034;5.090;2023-02-18T18:18:57;11.40;80.80
69895;DHT22;57172;52.034;5.090;2023-02-18T18:21:32;11.30;80.90
69895;DHT22;57172;52.034;5.090;2023-02-18T18:24:00;11.30;80.80
69895;DHT22;57172;52.034;5.090;2023-02-18T18:26:29;11.30;81.00
69895;DHT22;57172;52.034;5.090;2023-02-18T18:28:56;11.30;81.00
69895;DHT22;57172;52.034;5.090;2023-02-18T18:31:23;11.30;80.90
69895;DHT22;57172;52.034;5.090;2023-02-18T18:33:51;11.30;81.00